Time;durP1;ratioP1;P1;durP2;ratioP2;P2;SDS_P1;SDS_P2;PMS_P1;PMS_P2;Temp;Humidity;BMP_temperature;BMP_pressure;BME280_temperature;BME280_humidity;BME280_pressure;Samples;Min_cycle;Max_cycle;Signal;HPM_P1;HPM_P2
2023/01/25 00:01:12;;;;;;;11.3;7.8;;;;;;;;;;;;;
2023/01/25 00:03:39;;;;;;;8.4;6.6;;;;;;;;;;;;;
2023/01/25 00:06:05;;;;;;;10.5;7.7;;;;;;;;;;;;;
2023/01/25 00:08:31;;;;;;;10.7;7.5;;;;;;;;;;;;;
2023/01/25 00:10:56;;;;;;;10.6;7.7;;;;;;;;;;;;;
2023/01/25 00:13:21;;;;;;;8.9;7;;;;;;;;;;;;;
2023/01/25 00:15:48;;;;;;;10.6;7.8;;;;;;;;;;;;;
2023/01/25 00:18:17;;;;;;;9.8;6.9;;;;;;;;;;;;;
2023/01/25 00:20:46;;;;;;;10.8;7.8;;;;;;;;;;;;;
2023/01/25 00:23:19;;;;;;;10.9;7.7;;;;;;;;;;;;;
2023/01/25 00:25:48;;;;;;;10.3;7.3;;;;;;;;;;;;;
2023/01/25 00:28:13;;;;;;;10.1;7.4;;;;;;;;;;;;;
2023/01/25 00:30:40;;;;;;;10.2;7.4;;;;;;;;;;;;;
2023/01/25 00:33:05;;;;;;;10.3;7.3;;;;;;;;;;;;;
2023/01/25 00:35:33;;;;;;;10;7;;;;;;;;;;;;;
2023/01/25 00:38:00;;;;;;;10.2;7;;;;;;;;;;;;;
2023/01/25 00:40:29;;;;;;;10;7.6;;;;;;;;;;;;;
2023/01/25 00:42:54;;;;;;;12;10.7;;;;;;;;;;;;;
2023/01/25 00:45:19;;;;;;;11;7.9;;;;;;;;;;;;;
2023/01/25 00:47:44;;;;;;;10.8;7.7;;;;;;;;;;;;;
2023/01/25 00:50:09;;;;;;;10.9;7.8;;;;;;;;;;;;;
2023/01/25 00:52:34;;;;;;;11.7;7.9;;;;;;;;;;;;;
2023/01/25 00:54:59;;;;;;;9.7;6.9;;;;;;;;;;;;;
2023/01/25 00:57:25;;;;;;;10.2;7.4;;;;;;;;;;;;;
2023/01/25 00:59:51;;;;;;;10.9;7.4;;;;;;;;;;;;;
2023/01/25 01:02:16;;;;;;;11.2;7.8;;;;;;;;;;;;;
2023/01/25 01:04:43;;;;;;;8.7;6.8;;;;;;;;;;;;;
2023/01/25 01:07:08;;;;;;;10.4;7.3;;;;;;;;;;;;;
2023/01/25 01:09:36;;;;;;;9.6;6.9;;;;;;;;;;;;;
2023/01/25 01:12:01;;;;;;;9.6;6.9;;;;;;;;;;;;;
2023/01/25 01:14:27;;;;;;;9.9;7.4;;;;;;;;;;;;;
2023/01/25 01:16:52;;;;;;;10.4;7.4;;;;;;;;;;;;;
2023/01/25 01:19:17;;;;;;;10.3;7.4;;;;;;;;;;;;;
2023/01/25 01:21:42;;;;;;;9.7;7.5;;;;;;;;;;;;;
2023/01/25 01:24:08;;;;;;;10.4;7.7;;;;;;;;;;;;;
2023/01/25 01:26:34;;;;;;;10.2;7.6;;;;;;;;;;;;;
2023/01/25 01:29:00;;;;;;;10.2;7;;;;;;;;;;;;;
2023/01/25 01:31:25;;;;;;;9.3;6.8;;;;;;;;;;;;;
2023/01/25 01:33:51;;;;;;;9.7;6.8;;;;;;;;;;;;;
2023/01/25 01:36:16;;;;;;;9.8;6.7;;;;;;;;;;;;;
2023/01/25 01:38:42;;;;;;;8.9;6.9;;;;;;;;;;;;;
2023/01/25 01:41:07;;;;;;;9.1;6.6;;;;;;;;;;;;;
2023/01/25 01:43:33;;;;;;;9.7;6.5;;;;;;;;;;;;;
2023/01/25 01:45:58;;;;;;;8;6.6;;;;;;;;;;;;;
2023/01/25 01:48:23;;;;;;;9.6;6.6;;;;;;;;;;;;;
2023/01/25 01:50:49;;;;;;;9.3;6.6;;;;;;;;;;;;;
2023/01/25 01:53:14;;;;;;;9.9;6.6;;;;;;;;;;;;;
2023/01/25 01:55:42;;;;;;;10.2;7.5;;;;;;;;;;;;;
2023/01/25 01:58:07;;;;;;;10;6.7;;;;;;;;;;;;;
2023/01/25 02:00:32;;;;;;;10.5;7;;;;;;;;;;;;;
2023/01/25 02:02:57;;;;;;;8.5;6.4;;;;;;;;;;;;;
2023/01/25 02:05:23;;;;;;;8.5;6.4;;;;;;;;;;;;;
2023/01/25 02:07:49;;;;;;;9.6;6.7;;;;;;;;;;;;;
2023/01/25 02:10:16;;;;;;;9.7;7;;;;;;;;;;;;;
2023/01/25 02:12:41;;;;;;;8.9;6.3;;;;;;;;;;;;;
2023/01/25 02:15:09;;;;;;;9.8;6.9;;;;;;;;;;;;;
2023/01/25 02:17:34;;;;;;;9.2;6.8;;;;;;;;;;;;;
2023/01/25 02:19:59;;;;;;;9.5;7;;;;;;;;;;;;;
2023/01/25 02:22:24;;;;;;;8.6;6.1;;;;;;;;;;;;;
2023/01/25 02:24:50;;;;;;;8.7;6.1;;;;;;;;;;;;;
2023/01/25 02:27:15;;;;;;;8.1;6.3;;;;;;;;;;;;;
2023/01/25 02:29:41;;;;;;;8.2;6;;;;;;;;;;;;;
2023/01/25 02:32:06;;;;;;;8.3;6.1;;;;;;;;;;;;;
2023/01/25 02:34:34;;;;;;;8.6;6.1;;;;;;;;;;;;;
2023/01/25 02:36:58;;;;;;;9.6;6.5;;;;;;;;;;;;;
2023/01/25 02:39:25;;;;;;;8;5.8;;;;;;;;;;;;;
2023/01/25 02:41:49;;;;;;;7.9;5.6;;;;;;;;;;;;;
2023/01/25 02:44:14;;;;;;;7.2;5.4;;;;;;;;;;;;;
2023/01/25 02:46:40;;;;;;;6.3;5;;;;;;;;;;;;;
2023/01/25 02:49:05;;;;;;;7.3;5.5;;;;;;;;;;;;;
2023/01/25 02:51:30;;;;;;;6.5;5.1;;;;;;;;;;;;;
2023/01/25 02:53:55;;;;;;;7.2;5.4;;;;;;;;;;;;;
2023/01/25 02:56:22;;;;;;;6.7;5.1;;;;;;;;;;;;;
2023/01/25 02:58:47;;;;;;;7.1;5.1;;;;;;;;;;;;;
2023/01/25 03:01:13;;;;;;;7.2;5.1;;;;;;;;;;;;;
2023/01/25 03:03:38;;;;;;;7.2;5.6;;;;;;;;;;;;;
2023/01/25 03:06:05;;;;;;;8.1;6;;;;;;;;;;;;;
2023/01/25 03:08:30;;;;;;;7.3;5.3;;;;;;;;;;;;;
2023/01/25 03:10:56;;;;;;;7.8;6;;;;;;;;;;;;;
2023/01/25 03:13:21;;;;;;;9.8;5.6;;;;;;;;;;;;;
2023/01/25 03:15:47;;;;;;;7.9;6.2;;;;;;;;;;;;;
2023/01/25 03:18:12;;;;;;;8.1;6.2;;;;;;;;;;;;;
2023/01/25 03:20:38;;;;;;;8.2;6;;;;;;;;;;;;;
2023/01/25 03:23:03;;;;;;;8.4;6;;;;;;;;;;;;;
2023/01/25 03:25:30;;;;;;;8.7;6.3;;;;;;;;;;;;;
2023/01/25 03:27:56;;;;;;;9.6;6.6;;;;;;;;;;;;;
2023/01/25 03:30:21;;;;;;;8.7;6.5;;;;;;;;;;;;;
2023/01/25 03:32:47;;;;;;;9.5;6.4;;;;;;;;;;;;;
2023/01/25 03:35:13;;;;;;;8.1;5.7;;;;;;;;;;;;;
2023/01/25 03:37:38;;;;;;;8.7;6;;;;;;;;;;;;;
2023/01/25 03:40:04;;;;;;;7.9;5.9;;;;;;;;;;;;;
2023/01/25 03:42:29;;;;;;;9.5;6.3;;;;;;;;;;;;;
2023/01/25 03:44:55;;;;;;;8.8;6.7;;;;;;;;;;;;;
2023/01/25 03:47:20;;;;;;;9.6;6.8;;;;;;;;;;;;;
2023/01/25 03:49:46;;;;;;;8.4;6.2;;;;;;;;;;;;;
2023/01/25 03:52:11;;;;;;;7.6;5.8;;;;;;;;;;;;;
2023/01/25 03:54:37;;;;;;;5.8;4.7;;;;;;;;;;;;;
2023/01/25 03:57:02;;;;;;;8.5;5.1;;;;;;;;;;;;;
2023/01/25 03:59:28;;;;;;;7.2;5.5;;;;;;;;;;;;;
2023/01/25 04:02:33;;;;;;;6.6;5.4;;;;;;;-1.96;81.58203;949.658;;;;
2023/01/25 04:05:29;;;;;;;7.4;5.5;;;;;;;-2.02;82.06934;949.6079;;;;
2023/01/25 04:09:22;;;;;;;7.6;5.2;;;;;;;-2.09;81.24609;949.6775;;;;
2023/01/25 04:11:42;;;;;;;6.7;5;;;;;;;-2.25;81.4375;949.6346;;;;
2023/01/25 04:14:13;;;;;;;6.4;4.7;;;;;;;-2.25;81.42676;949.5703;;;;
2023/01/25 04:16:38;;;;;;;7.1;5;;;;;;;-2.4;81.31934;949.5707;;;;
2023/01/25 04:19:07;;;;;;;7.7;5.5;;;;;;;-2.4;81.69727;949.4853;;;;
2023/01/25 04:21:37;;;;;;;6.9;4.9;;;;;;;-2.45;81.15527;949.4948;;;;
2023/01/25 04:24:02;;;;;;;6.4;4.8;;;;;;;-2.59;81.18457;949.4698;;;;
2023/01/25 04:26:32;;;;;;;6.6;4.8;;;;;;;-2.58;81.21777;949.3969;;;;
2023/01/25 04:28:57;;;;;;;7.4;5.2;;;;;;;-2.55;81.69922;949.4653;;;;
2023/01/25 04:31:25;;;;;;;6.4;5.2;;;;;;;-2.52;81.83008;949.3536;;;;
2023/01/25 04:33:50;;;;;;;6.5;5.1;;;;;;;-2.43;82.05566;949.3704;;;;
2023/01/25 04:36:19;;;;;;;7.3;5.5;;;;;;;-2.41;81.76074;949.3721;;;;
2023/01/25 04:38:50;;;;;;;7.2;5.5;;;;;;;-2.34;82.15332;949.337;;;;
2023/01/25 04:41:20;;;;;;;7.6;5.8;;;;;;;-2.2;82.28906;949.3281;;;;
2023/01/25 04:43:50;;;;;;;6.4;4.8;;;;;;;-2.22;80.64648;949.2646;;;;
2023/01/25 04:46:52;;;;;;;6.2;4.6;;;;;;;-2.37;80.29785;949.277;;;;
2023/01/25 04:49:17;;;;;;;8;4.7;;;;;;;-2.43;80.95996;949.2659;;;;
2023/01/25 04:51:48;;;;;;;8.3;5.2;;;;;;;-2.46;80.89941;949.3141;;;;
2023/01/25 04:54:19;;;;;;;6.5;5;;;;;;;-2.46;81.65234;949.4077;;;;
2023/01/25 04:56:50;;;;;;;8.7;5.5;;;;;;;-2.67;81.45703;949.4077;;;;
2023/01/25 04:59:20;;;;;;;8.1;5.8;;;;;;;-2.69;81.55273;949.4711;;;;
2023/01/25 05:04:28;;;;;;;7.3;5.2;;;;;;;-2.81;82.50391;949.5631;;;;
2023/01/25 05:06:52;;;;;;;6.7;5;;;;;;;-2.73;82.1084;949.4805;;;;
2023/01/25 05:09:23;;;;;;;7.1;5;;;;;;;-2.78;81.29004;949.5483;;;;
2023/01/25 05:11:48;;;;;;;7.5;5.1;;;;;;;-2.61;81.40039;949.548;;;;
2023/01/25 05:14:19;;;;;;;7.1;5.2;;;;;;;-2.54;80.82813;949.4785;;;;
2023/01/25 05:16:46;;;;;;;7.9;5.2;;;;;;;-2.49;80.53906;949.4911;;;;
2023/01/25 05:19:15;;;;;;;7.6;5.4;;;;;;;-2.39;80.97949;949.495;;;;
2023/01/25 05:22:01;;;;;;;7.8;5.6;;;;;;;-2.53;80.39746;949.5317;;;;
2023/01/25 05:24:11;;;;;;;9.4;5.8;;;;;;;-2.75;81.21973;949.4742;;;;
2023/01/25 05:27:40;;;;;;;8.8;5.5;;;;;;;-2.88;81.56934;949.4061;;;;
2023/01/25 05:29:15;;;;;;;8.6;5.8;;;;;;;-2.65;81.71289;949.3896;;;;
2023/01/25 05:31:43;;;;;;;7.8;5.7;;;;;;;-2.71;81.64746;949.3304;;;;
2023/01/25 05:34:12;;;;;;;8.9;6.3;;;;;;;-2.59;81.59277;949.2252;;;;
2023/01/25 05:36:44;;;;;;;8.4;6;;;;;;;-2.52;81.5625;949.2238;;;;
2023/01/25 05:39:18;;;;;;;8.6;6.1;;;;;;;-2.58;81.74023;949.2289;;;;
2023/01/25 05:41:46;;;;;;;9;6.8;;;;;;;-2.69;82.10645;949.2347;;;;
2023/01/25 05:44:16;;;;;;;8.9;6.5;;;;;;;-2.64;82.70313;949.2623;;;;
2023/01/25 05:46:41;;;;;;;10.3;7.1;;;;;;;-2.51;83.21582;949.2192;;;;
2023/01/25 05:49:11;;;;;;;10;7.5;;;;;;;-2.63;83.63379;949.1577;;;;
2023/01/25 05:59:49;;;;;;;12.7;9.3;;;;;;;-2.84;88.2832;949.0872;;;;
2023/01/25 06:02:20;;;;;;;14.1;9.3;;;;;;;-2.72;88.52051;949.0753;;;;
2023/01/25 06:04:49;;;;;;;27.5;17.2;;;;;;;-2.63;88.11719;948.9983;;;;
2023/01/25 06:07:14;;;;;;;44.1;26.1;;;;;;;-2.6;88.7002;949.0471;;;;
2023/01/25 06:09:41;;;;;;;42.6;26.5;;;;;;;-2.64;89.10059;949.0156;;;;
2023/01/25 06:12:06;;;;;;;16.6;11.7;;;;;;;-2.66;89.38379;948.9995;;;;
2023/01/25 06:14:35;;;;;;;35.5;23.6;;;;;;;-2.78;89.45898;949.0131;;;;
2023/01/25 06:17:00;;;;;;;32.2;20.8;;;;;;;-2.89;90.1748;948.9668;;;;
2023/01/25 06:19:27;;;;;;;12.4;9.2;;;;;;;-2.89;89.95313;948.9694;;;;
2023/01/25 06:21:52;;;;;;;13.4;9.1;;;;;;;-3.04;89.97559;948.9392;;;;
2023/01/25 06:24:22;;;;;;;12.2;9;;;;;;;-3.05;89.8877;948.9291;;;;
2023/01/25 06:26:47;;;;;;;14.6;9.1;;;;;;;-3.09;89.74707;948.8681;;;;
2023/01/25 06:29:18;;;;;;;14.3;9.8;;;;;;;-3.08;89.5918;948.8489;;;;
2023/01/25 06:31:45;;;;;;;13;9.2;;;;;;;-3.23;89.77148;948.7974;;;;
2023/01/25 06:34:23;;;;;;;16.8;11.6;;;;;;;-3.21;89.77539;948.7463;;;;
2023/01/25 06:36:52;;;;;;;13.8;9.5;;;;;;;-3.25;89.24805;948.8329;;;;
2023/01/25 06:39:17;;;;;;;12.9;9.1;;;;;;;-3.33;89.58398;948.8132;;;;
2023/01/25 06:41:45;;;;;;;14.1;9.9;;;;;;;-3.44;89.71387;948.8375;;;;
2023/01/25 06:44:10;;;;;;;14.6;10;;;;;;;-3.51;90.1748;948.8183;;;;
2023/01/25 06:46:42;;;;;;;14.4;10.4;;;;;;;-3.58;90.60156;948.8625;;;;
2023/01/25 06:49:10;;;;;;;13.7;10;;;;;;;-3.67;91.0459;948.8211;;;;
2023/01/25 06:51:35;;;;;;;61.4;30.5;;;;;;;-3.58;90.95508;948.8753;;;;
2023/01/25 06:54:00;;;;;;;23.9;15.2;;;;;;;-3.44;89.42676;948.934;;;;
2023/01/25 06:56:27;;;;;;;16.8;10.4;;;;;;;-3.38;89.19922;948.8516;;;;
2023/01/25 06:58:52;;;;;;;29.6;15.4;;;;;;;-3.27;88.98828;948.8163;;;;
2023/01/25 07:01:21;;;;;;;16.1;10.1;;;;;;;-3.1;87.84082;948.7564;;;;
2023/01/25 07:03:46;;;;;;;12.5;8.6;;;;;;;-3.11;86.82422;948.784;;;;
2023/01/25 07:06:11;;;;;;;13.9;8.7;;;;;;;-3.24;86.26563;948.825;;;;
2023/01/25 07:08:40;;;;;;;10.6;6.8;;;;;;;-3.28;85.38477;948.815;;;;
2023/01/25 07:11:05;;;;;;;10.8;7.4;;;;;;;-3.43;84.12695;948.8318;;;;
2023/01/25 07:13:32;;;;;;;12.5;7.7;;;;;;;-3.48;83.62988;948.8215;;;;
2023/01/25 07:15:57;;;;;;;10.3;7.1;;;;;;;-3.55;84.1582;948.7501;;;;
2023/01/25 07:18:24;;;;;;;10.6;6.5;;;;;;;-3.54;83.17578;948.7551;;;;
2023/01/25 07:20:50;;;;;;;10.3;7.2;;;;;;;-3.45;82.38672;948.7099;;;;
2023/01/25 07:23:15;;;;;;;11;6.6;;;;;;;-3.35;81.83301;948.7358;;;;
2023/01/25 07:25:40;;;;;;;12.6;8.1;;;;;;;-3.31;82.4248;948.6057;;;;
2023/01/25 07:28:05;;;;;;;10.2;6.6;;;;;;;-3.32;82.17969;948.731;;;;
2023/01/25 07:30:30;;;;;;;9.5;6.4;;;;;;;-3.44;82.33301;948.7378;;;;
2023/01/25 07:32:58;;;;;;;10.4;6.8;;;;;;;-3.22;81.8916;948.7527;;;;
2023/01/25 07:35:23;;;;;;;13.7;9;;;;;;;-2.69;83.02539;948.6739;;;;
2023/01/25 07:37:51;;;;;;;16.3;9.8;;;;;;;-2.38;80.90332;948.6072;;;;
2023/01/25 07:40:16;;;;;;;12.5;8.5;;;;;;;-2.28;79.60449;948.6476;;;;
2023/01/25 07:42:45;;;;;;;9.1;6.5;;;;;;;-2.03;77.16895;948.5884;;;;
2023/01/25 07:45:10;;;;;;;9.4;6.4;;;;;;;-1.53;75.90625;948.5932;;;;
2023/01/25 07:47:38;;;;;;;8;5.8;;;;;;;-0.69;73.02148;948.5828;;;;
2023/01/25 07:50:03;;;;;;;8.1;5.8;;;;;;;-0.2;70.01074;948.6091;;;;
2023/01/25 07:52:30;;;;;;;9;6.3;;;;;;;-0.38;67.66797;948.5701;;;;
2023/01/25 07:54:55;;;;;;;7.6;5.7;;;;;;;-0.13;66.73828;948.5634;;;;
2023/01/25 07:57:24;;;;;;;9.4;5.6;;;;;;;0.32;64.26758;948.5441;;;;
2023/01/25 07:59:48;;;;;;;9.9;5.5;;;;;;;0.77;62.11523;948.5108;;;;
2023/01/25 08:02:18;;;;;;;10.2;6.4;;;;;;;1.05;60.55957;948.4581;;;;
2023/01/25 08:04:47;;;;;;;7.5;5.7;;;;;;;1.71;59.06543;948.427;;;;
2023/01/25 08:07:12;;;;;;;8.5;6.4;;;;;;;2.26;57.68652;948.4856;;;;
2023/01/25 08:09:42;;;;;;;9.1;6.5;;;;;;;2.92;56.22754;948.4622;;;;
2023/01/25 08:12:13;;;;;;;12.2;8.5;;;;;;;2.68;57.18262;948.4247;;;;
2023/01/25 08:14:42;;;;;;;10;7.2;;;;;;;2.43;57.92285;948.2832;;;;
2023/01/25 08:17:08;;;;;;;10.4;7.6;;;;;;;1.29;61.74414;948.4155;;;;
2023/01/25 08:19:34;;;;;;;10.5;7.2;;;;;;;0.72;63.99512;948.3494;;;;
2023/01/25 08:22:00;;;;;;;9.9;7;;;;;;;0.54;64.64648;948.2483;;;;
2023/01/25 08:24:28;;;;;;;8.8;5.9;;;;;;;0.11;65.28223;948.2578;;;;
2023/01/25 08:26:53;;;;;;;9.8;6.9;;;;;;;-0.09;67.13379;948.2986;;;;
2023/01/25 08:29:19;;;;;;;9.4;7.3;;;;;;;-0.01;67.70313;948.2366;;;;
2023/01/25 08:31:44;;;;;;;10.9;6.7;;;;;;;0;67.94043;948.226;;;;
2023/01/25 08:34:09;;;;;;;8.3;6.7;;;;;;;-0.74;69.37598;948.1608;;;;
2023/01/25 08:36:37;;;;;;;10.6;6.9;;;;;;;-0.41;69.4873;948.1036;;;;
2023/01/25 08:39:02;;;;;;;11.1;7;;;;;;;1.6;63.13184;947.9045;;;;
2023/01/25 08:41:28;;;;;;;9.1;6.4;;;;;;;1.91;60.44727;947.9498;;;;
2023/01/25 08:43:54;;;;;;;9.3;6.4;;;;;;;0.82;64.0752;947.9706;;;;
2023/01/25 08:46:23;;;;;;;8.4;6.1;;;;;;;2.32;60.02539;947.9783;;;;
2023/01/25 08:48:48;;;;;;;9.4;7;;;;;;;4.66;54.27344;947.8148;;;;
2023/01/25 08:51:15;;;;;;;11.5;7.5;;;;;;;5.03;51.875;947.8106;;;;
2023/01/25 08:53:40;;;;;;;8.7;5.5;;;;;;;5.29;50.37207;947.7654;;;;
2023/01/25 08:56:10;;;;;;;8.6;6.1;;;;;;;6.63;46.63867;947.7015;;;;
2023/01/25 08:58:40;;;;;;;7.9;6.2;;;;;;;6.67;46.14551;947.6976;;;;
2023/01/25 09:01:05;;;;;;;6.9;5.4;;;;;;;7.15;44.07813;947.7063;;;;
2023/01/25 09:03:36;;;;;;;8.4;6.2;;;;;;;7.6;44.27246;947.6947;;;;
2023/01/25 09:06:05;;;;;;;9.8;7.6;;;;;;;5.89;46.61426;947.5893;;;;
2023/01/25 09:08:30;;;;;;;9.6;7;;;;;;;5.49;47.86816;947.673;;;;
2023/01/25 09:11:01;;;;;;;11.1;7.8;;;;;;;4.48;50.6709;947.6635;;;;
2023/01/25 09:13:31;;;;;;;10.2;7.4;;;;;;;3.62;53.21973;947.7037;;;;
2023/01/25 09:15:56;;;;;;;11.6;8.2;;;;;;;2.89;55.73145;947.7151;;;;
2023/01/25 09:18:21;;;;;;;8.9;6.9;;;;;;;2.21;58.23926;947.7188;;;;
2023/01/25 09:20:49;;;;;;;9.8;6.9;;;;;;;1.65;59.90723;947.7296;;;;
2023/01/25 09:23:14;;;;;;;9.5;7.1;;;;;;;1.13;62.02344;947.8095;;;;
2023/01/25 09:25:43;;;;;;;10.2;7.5;;;;;;;0.85;63.23145;947.8172;;;;
2023/01/25 09:28:11;;;;;;;10.4;7.3;;;;;;;0.68;64.49023;947.7841;;;;
2023/01/25 09:30:36;;;;;;;10.6;7.4;;;;;;;0.65;65.16504;947.738;;;;
2023/01/25 09:33:02;;;;;;;11.8;8;;;;;;;0.56;64.8291;947.7286;;;;
2023/01/25 09:35:29;;;;;;;12;8.5;;;;;;;0.11;63.47852;947.7626;;;;
2023/01/25 09:37:52;;;;;;;13.9;9.9;;;;;;;-0.21;64.17578;947.822;;;;
2023/01/25 09:40:17;;;;;;;16.2;11;;;;;;;-0.56;65.63574;947.7059;;;;
2023/01/25 09:42:42;;;;;;;16;10.6;;;;;;;-0.67;66.19629;947.7676;;;;
2023/01/25 09:45:07;;;;;;;15.8;10.4;;;;;;;-0.95;67.93164;947.6459;;;;
2023/01/25 09:47:32;;;;;;;14.9;10.1;;;;;;;-0.93;68.64648;947.7401;;;;
2023/01/25 09:49:58;;;;;;;11.9;8.7;;;;;;;-0.87;68.89844;947.6725;;;;
2023/01/25 09:52:22;;;;;;;10.8;7.6;;;;;;;-1.23;71.12891;947.6938;;;;
2023/01/25 09:54:47;;;;;;;13.1;8.2;;;;;;;-1.16;72.3623;947.6824;;;;
2023/01/25 09:57:14;;;;;;;12.7;7.3;;;;;;;-1.17;71.90527;947.5811;;;;
2023/01/25 09:59:39;;;;;;;11;6.8;;;;;;;-1.24;72.26172;947.5757;;;;
2023/01/25 10:02:04;;;;;;;9;6.6;;;;;;;-1.04;72.0625;947.5463;;;;
2023/01/25 10:04:29;;;;;;;9.4;6.9;;;;;;;-0.9;71.75195;947.5623;;;;
2023/01/25 10:06:54;;;;;;;10;7;;;;;;;-1.14;72.38965;947.4575;;;;
2023/01/25 10:09:22;;;;;;;9.4;6.7;;;;;;;-1.22;73.35352;947.4542;;;;
2023/01/25 10:11:48;;;;;;;9.4;6.2;;;;;;;-1.12;73.45801;947.397;;;;
2023/01/25 10:14:13;;;;;;;9.4;6.4;;;;;;;-0.84;72.96191;947.4347;;;;
2023/01/25 10:16:38;;;;;;;9.7;6.8;;;;;;;-0.77;72.30762;947.3328;;;;
2023/01/25 10:19:05;;;;;;;11.8;7.3;;;;;;;-0.96;71.85254;947.3219;;;;
2023/01/25 10:21:31;;;;;;;10.9;7.6;;;;;;;-0.81;71.60059;947.2882;;;;
2023/01/25 10:23:56;;;;;;;10.7;7.8;;;;;;;-0.88;72.43262;947.26;;;;
2023/01/25 10:26:21;;;;;;;11.1;7.3;;;;;;;-0.75;71.75391;947.2878;;;;
2023/01/25 10:28:47;;;;;;;10;7;;;;;;;-0.73;72.31543;947.2115;;;;
2023/01/25 10:31:12;;;;;;;10.2;7.5;;;;;;;-0.65;72.20703;947.21;;;;
2023/01/25 10:33:42;;;;;;;11.9;7.8;;;;;;;-0.54;72.21289;947.2283;;;;
2023/01/25 10:36:07;;;;;;;10.3;7.2;;;;;;;-0.52;72.35059;947.1905;;;;
2023/01/25 10:38:33;;;;;;;12;7.3;;;;;;;-0.27;71.48145;947.1389;;;;
2023/01/25 10:40:58;;;;;;;11.1;6.8;;;;;;;-0.13;70.76953;947.0963;;;;
2023/01/25 10:43:28;;;;;;;10.1;7.1;;;;;;;-0.22;71.8916;947.0435;;;;
2023/01/25 10:45:53;;;;;;;11.4;7.6;;;;;;;-0.2;72.48242;946.9672;;;;
2023/01/25 10:48:19;;;;;;;10.6;7.5;;;;;;;-0.06;72.70703;946.9864;;;;
2023/01/25 10:50:45;;;;;;;9.9;7.7;;;;;;;-0.16;74.81738;947.0251;;;;
2023/01/25 10:53:09;;;;;;;11;7.5;;;;;;;-0.25;75.95996;946.9383;;;;
2023/01/25 10:55:35;;;;;;;12.3;8.4;;;;;;;-0.16;76.56445;946.8861;;;;
2023/01/25 10:58:01;;;;;;;9.6;7.6;;;;;;;0.02;77.38867;946.8359;;;;
2023/01/25 11:00:26;;;;;;;9.5;6.7;;;;;;;0.12;77.28516;946.7726;;;;
2023/01/25 11:02:52;;;;;;;10.7;7.2;;;;;;;0.24;77.68555;946.7285;;;;
2023/01/25 11:05:16;;;;;;;9.7;7.2;;;;;;;0.28;78.35059;946.6448;;;;
2023/01/25 11:07:46;;;;;;;9.8;7.2;;;;;;;0.47;78.1416;946.6317;;;;
2023/01/25 11:10:11;;;;;;;10.6;7.5;;;;;;;0.52;78.29492;946.5862;;;;
2023/01/25 11:12:36;;;;;;;10;6.8;;;;;;;0.54;78.80078;946.5667;;;;
2023/01/25 11:15:02;;;;;;;12.1;8;;;;;;;0.56;78.89258;946.5414;;;;
2023/01/25 11:17:34;;;;;;;11.3;8.1;;;;;;;0.68;78.77148;946.5703;;;;
2023/01/25 11:20:01;;;;;;;9.4;7.2;;;;;;;0.88;78.61914;946.5302;;;;
2023/01/25 11:22:28;;;;;;;10.1;7.4;;;;;;;1.03;78.72559;946.5278;;;;
2023/01/25 11:24:52;;;;;;;10.2;7.4;;;;;;;0.89;78.74316;946.5292;;;;
2023/01/25 11:27:19;;;;;;;10.2;7.2;;;;;;;1.03;78.71484;946.428;;;;
2023/01/25 11:29:45;;;;;;;9.6;7.1;;;;;;;1.08;78.59961;946.3674;;;;
2023/01/25 11:32:09;;;;;;;10.3;7.5;;;;;;;1.26;78.41016;946.3953;;;;
2023/01/25 11:34:38;;;;;;;9;6.8;;;;;;;1.51;77.90918;946.3943;;;;
2023/01/25 11:37:03;;;;;;;8.8;6.6;;;;;;;1.65;76.78223;946.3527;;;;
2023/01/25 11:39:32;;;;;;;9.5;7.3;;;;;;;1.83;76.61328;946.2859;;;;
2023/01/25 11:42:32;;;;;;;8.7;6.2;;;;;;;2.06;75.71582;946.2706;;;;
2023/01/25 11:44:57;;;;;;;9.6;7.3;;;;;;;2.32;74.87793;946.2564;;;;
2023/01/25 11:47:37;;;;;;;8;6.6;;;;;;;2.51;73.96777;946.2241;;;;
2023/01/25 11:50:02;;;;;;;8.2;6.6;;;;;;;2.73;72.59473;946.1863;;;;
2023/01/25 11:52:29;;;;;;;8.9;6.5;;;;;;;2.72;72.61426;946.0637;;;;
2023/01/25 11:54:56;;;;;;;9;6.9;;;;;;;2.71;72.81641;946.0416;;;;
2023/01/25 11:57:54;;;;;;;9.4;7.2;;;;;;;2.6;73.12109;946.0377;;;;
2023/01/25 12:00:20;;;;;;;8.8;6.7;;;;;;;2.72;72.74902;945.9594;;;;
2023/01/25 12:03:17;;;;;;;8.7;6.3;;;;;;;2.92;72.13379;945.9133;;;;
2023/01/25 12:05:42;;;;;;;9.6;6.9;;;;;;;2.75;72.12695;945.8854;;;;
2023/01/25 12:08:11;;;;;;;10.3;7.1;;;;;;;2.63;72.7793;945.8187;;;;
2023/01/25 12:10:36;;;;;;;9.7;7.2;;;;;;;2.4;73.30078;945.8092;;;;
2023/01/25 12:13:02;;;;;;;10.9;7.5;;;;;;;2.33;74.40918;945.7745;;;;
2023/01/25 12:15:33;;;;;;;10.7;7.3;;;;;;;2.4;74.26465;945.7008;;;;
2023/01/25 12:17:59;;;;;;;10.2;7.4;;;;;;;2.26;74.61816;945.6944;;;;
2023/01/25 12:20:24;;;;;;;9.3;7.4;;;;;;;2.32;74.46289;945.6749;;;;
2023/01/25 12:22:51;;;;;;;9.9;7.4;;;;;;;2.15;75.01563;945.6335;;;;
2023/01/25 12:25:19;;;;;;;10.5;7.6;;;;;;;2.03;75.47461;945.6083;;;;
2023/01/25 12:27:46;;;;;;;9.9;7.5;;;;;;;2.12;75.76074;945.5637;;;;
2023/01/25 12:30:11;;;;;;;11.7;8;;;;;;;2.12;75.90625;945.4311;;;;
2023/01/25 12:32:37;;;;;;;9.1;7;;;;;;;2.38;75.05469;945.4448;;;;
2023/01/25 12:35:02;;;;;;;8.7;6.7;;;;;;;2.39;74.84277;945.4684;;;;
2023/01/25 12:37:27;;;;;;;9.8;6.6;;;;;;;2.61;74.12012;945.3206;;;;
2023/01/25 12:39:52;;;;;;;9;6.8;;;;;;;2.68;73.22461;945.3273;;;;
2023/01/25 12:42:17;;;;;;;9.8;7.1;;;;;;;2.72;73.71289;945.217;;;;
2023/01/25 12:44:42;;;;;;;8.8;6.8;;;;;;;2.75;73.10254;945.1802;;;;
2023/01/25 12:47:12;;;;;;;9.4;6.7;;;;;;;2.75;73.19238;945.2664;;;;
2023/01/25 12:49:37;;;;;;;10.7;6.7;;;;;;;2.69;73.32715;945.2124;;;;
2023/01/25 12:52:02;;;;;;;8.6;6.6;;;;;;;2.45;73.82422;945.1451;;;;
2023/01/25 12:54:27;;;;;;;8.2;6.3;;;;;;;2.3;74.24707;945.1342;;;;
2023/01/25 12:56:57;;;;;;;8.5;6.2;;;;;;;2.36;74.77051;945.0553;;;;
2023/01/25 12:59:19;;;;;;;10.1;7.1;;;;;;;2.26;75.1123;945.0544;;;;
2023/01/25 13:02:26;;;;;;;8.5;6.6;;;;;;;2.2;75.30273;945.0309;;;;
2023/01/25 13:04:55;;;;;;;9.9;6.7;;;;;;;1.92;76.41699;945.0549;;;;
2023/01/25 13:07:22;;;;;;;9.8;7.4;;;;;;;1.96;77.13965;944.9878;;;;
2023/01/25 13:09:48;;;;;;;9.1;7;;;;;;;2.12;76.57617;944.9391;;;;
2023/01/25 13:12:14;;;;;;;9.6;7.1;;;;;;;2.36;76.68555;944.9539;;;;
2023/01/25 13:14:38;;;;;;;8.6;6.5;;;;;;;2.38;75.2793;944.8716;;;;
2023/01/25 13:17:05;;;;;;;10.4;7.5;;;;;;;2.36;75.42188;944.8764;;;;
2023/01/25 13:19:30;;;;;;;10;6.9;;;;;;;2.4;74.81348;944.9149;;;;
2023/01/25 13:21:59;;;;;;;8.3;6.2;;;;;;;2.5;74.85352;944.8358;;;;
2023/01/25 13:24:24;;;;;;;9.9;7.3;;;;;;;2.55;74.7959;944.8619;;;;
2023/01/25 13:26:51;;;;;;;10.4;7.4;;;;;;;2.5;74.98828;944.7264;;;;
2023/01/25 13:29:20;;;;;;;9.3;7;;;;;;;2.5;74.68359;944.7805;;;;
2023/01/25 13:31:45;;;;;;;10.3;7.2;;;;;;;2.4;74.97949;944.7986;;;;
2023/01/25 13:34:13;;;;;;;9.3;7.3;;;;;;;2.29;75.56543;944.805;;;;
2023/01/25 13:36:42;;;;;;;8.7;6.3;;;;;;;2.25;75.72754;944.7111;;;;
2023/01/25 13:39:07;;;;;;;9.4;6.8;;;;;;;2.08;75.86328;944.7218;;;;
2023/01/25 13:41:32;;;;;;;8.6;6.5;;;;;;;1.83;76.55762;944.8178;;;;
2023/01/25 13:44:00;;;;;;;10.6;6.9;;;;;;;1.78;77.81152;944.7464;;;;
2023/01/25 13:46:27;;;;;;;9.5;6.9;;;;;;;1.52;78.2334;944.7152;;;;
2023/01/25 13:48:52;;;;;;;10.1;7.3;;;;;;;1.47;78.91797;944.7769;;;;
2023/01/25 13:51:20;;;;;;;9.7;6.9;;;;;;;1.44;79.43848;944.7846;;;;
2023/01/25 13:54:35;;;;;;;8.9;6.8;;;;;;;1.56;79.21387;944.7258;;;;
2023/01/25 13:57:00;;;;;;;9.5;6.8;;;;;;;1.62;79.06934;944.6433;;;;
2023/01/25 13:59:25;;;;;;;9.3;7.3;;;;;;;1.7;78.98242;944.7256;;;;
2023/01/25 14:01:50;;;;;;;9.4;7.4;;;;;;;1.69;78.68066;944.6459;;;;
2023/01/25 14:04:16;;;;;;;11.6;7.7;;;;;;;1.58;79.34277;944.7241;;;;
2023/01/25 14:06:45;;;;;;;11.2;8.1;;;;;;;1.11;82.02246;944.7168;;;;
2023/01/25 14:09:11;;;;;;;10.9;7.7;;;;;;;1.23;81.8457;944.7693;;;;
2023/01/25 14:11:38;;;;;;;11.2;8.4;;;;;;;1.27;81.89746;944.8059;;;;
2023/01/25 14:14:01;;;;;;;13.1;9.1;;;;;;;1.38;81.80859;944.8198;;;;
2023/01/25 14:16:28;;;;;;;12;8.6;;;;;;;1.53;81.43359;944.7386;;;;
2023/01/25 14:18:51;;;;;;;11.7;8.9;;;;;;;1.6;80.97656;944.7155;;;;
2023/01/25 14:21:16;;;;;;;14.6;9.7;;;;;;;1.49;81.52734;944.7411;;;;
2023/01/25 14:23:45;;;;;;;13.3;9;;;;;;;1.37;81.73828;944.7234;;;;
2023/01/25 14:26:12;;;;;;;13.8;10.1;;;;;;;1.34;81.86719;944.7296;;;;
2023/01/25 14:28:39;;;;;;;14;9.8;;;;;;;1.15;82.69043;944.6554;;;;
2023/01/25 14:31:04;;;;;;;13.7;9.3;;;;;;;1.17;82.92871;944.7145;;;;
2023/01/25 14:33:29;;;;;;;12.6;9.3;;;;;;;1.15;83.06055;944.7058;;;;
2023/01/25 14:35:57;;;;;;;13.9;9;;;;;;;1.19;83.06641;944.7463;;;;
2023/01/25 14:38:23;;;;;;;13.5;9.6;;;;;;;1.06;83.18652;944.7203;;;;
2023/01/25 14:40:48;;;;;;;13.2;9.4;;;;;;;;;;;;;
2023/01/25 14:43:13;;;;;;;14.3;9.4;;;;;;;;;;;;;
2023/01/25 14:45:38;;;;;;;13.1;9.1;;;;;;;;;;;;;
2023/01/25 14:48:03;;;;;;;12.4;8.8;;;;;;;;;;;;;
2023/01/25 14:50:28;;;;;;;13.3;9.4;;;;;;;;;;;;;
2023/01/25 14:52:53;;;;;;;13.3;9.1;;;;;;;;;;;;;
2023/01/25 14:55:19;;;;;;;13.8;9.3;;;;;;;;;;;;;
2023/01/25 14:57:45;;;;;;;13.7;9.5;;;;;;;;;;;;;
2023/01/25 15:00:09;;;;;;;13.7;9.7;;;;;;;;;;;;;
2023/01/25 15:02:37;;;;;;;14;9.6;;;;;;;;;;;;;
2023/01/25 15:05:02;;;;;;;14.5;9.5;;;;;;;;;;;;;
2023/01/25 15:07:28;;;;;;;13.9;9.7;;;;;;;;;;;;;
2023/01/25 15:09:53;;;;;;;13.4;9.4;;;;;;;;;;;;;
2023/01/25 15:12:18;;;;;;;14.6;10.3;;;;;;;;;;;;;
2023/01/25 15:14:43;;;;;;;13.8;10;;;;;;;;;;;;;
2023/01/25 15:17:08;;;;;;;15.7;10.4;;;;;;;;;;;;;
2023/01/25 15:19:34;;;;;;;15.6;10;;;;;;;;;;;;;
2023/01/25 15:21:59;;;;;;;15.7;10.3;;;;;;;;;;;;;
2023/01/25 15:24:24;;;;;;;14.1;9.6;;;;;;;;;;;;;
2023/01/25 15:26:49;;;;;;;12.6;8.7;;;;;;;;;;;;;
2023/01/25 15:29:14;;;;;;;13.4;9.1;;;;;;;;;;;;;
2023/01/25 15:31:39;;;;;;;14.6;9.5;;;;;;;;;;;;;
2023/01/25 15:34:05;;;;;;;11.9;8.7;;;;;;;;;;;;;
2023/01/25 15:36:30;;;;;;;12.9;9.1;;;;;;;;;;;;;
2023/01/25 15:38:55;;;;;;;15.4;10.6;;;;;;;;;;;;;
2023/01/25 15:41:21;;;;;;;14.7;10.1;;;;;;;;;;;;;
2023/01/25 15:43:47;;;;;;;13.3;9.4;;;;;;;;;;;;;
2023/01/25 15:46:12;;;;;;;20;15.8;;;;;;;;;;;;;
2023/01/25 15:48:37;;;;;;;14.8;10.5;;;;;;;;;;;;;
2023/01/25 15:51:05;;;;;;;20.7;13.6;;;;;;;;;;;;;
2023/01/25 15:53:31;;;;;;;20.9;14.4;;;;;;;;;;;;;
2023/01/25 15:55:57;;;;;;;18.4;12.5;;;;;;;;;;;;;
2023/01/25 15:58:22;;;;;;;16.4;11.9;;;;;;;;;;;;;
2023/01/25 16:00:48;;;;;;;17.8;11.9;;;;;;;;;;;;;
2023/01/25 16:03:12;;;;;;;22.2;15;;;;;;;;;;;;;
2023/01/25 16:05:37;;;;;;;21.1;14.2;;;;;;;;;;;;;
2023/01/25 16:08:03;;;;;;;20.5;14.2;;;;;;;;;;;;;
2023/01/25 16:10:29;;;;;;;20.8;14.4;;;;;;;;;;;;;
2023/01/25 16:12:54;;;;;;;25;18.5;;;;;;;;;;;;;
2023/01/25 16:15:20;;;;;;;15.8;12.6;;;;;;;;;;;;;
2023/01/25 16:17:46;;;;;;;16.7;11.5;;;;;;;;;;;;;
2023/01/25 16:20:13;;;;;;;17.9;14.4;;;;;;;;;;;;;